createdAt,value
2019-05-19T00:00:46.456Z,13.70
2019-05-19T00:03:49.951Z,13.60
2019-05-19T00:06:53.408Z,13.60
2019-05-19T00:09:56.968Z,13.60
2019-05-19T00:13:00.467Z,13.60
2019-05-19T00:16:04.328Z,13.60
2019-05-19T00:19:07.820Z,13.60
2019-05-19T00:22:11.273Z,13.60
2019-05-19T00:25:14.907Z,13.60
2019-05-19T00:28:18.368Z,13.60
2019-05-19T00:31:22.098Z,13.60
2019-05-19T00:34:25.593Z,13.70
2019-05-19T00:37:29.061Z,13.60
2019-05-19T00:40:32.549Z,13.70
2019-05-19T00:43:36.088Z,13.70
2019-05-19T00:46:39.653Z,13.70
2019-05-19T00:49:43.185Z,13.60
2019-05-19T00:52:46.748Z,13.60
2019-05-19T00:55:51.377Z,13.70
2019-05-19T00:58:55.578Z,13.70
2019-05-19T01:01:59.293Z,13.70
2019-05-19T01:05:03.038Z,13.70
2019-05-19T01:08:06.613Z,13.60
2019-05-19T01:11:10.078Z,13.60
2019-05-19T01:14:15.375Z,13.60
2019-05-19T01:17:18.796Z,13.70
2019-05-19T01:20:22.380Z,13.60
2019-05-19T01:23:25.877Z,13.60
2019-05-19T01:26:29.382Z,13.60
2019-05-19T01:29:32.838Z,13.60
2019-05-19T01:32:36.398Z,13.50
2019-05-19T01:35:39.893Z,13.60
2019-05-19T01:38:43.354Z,13.60
2019-05-19T01:41:46.929Z,13.70
2019-05-19T01:44:50.508Z,13.70
2019-05-19T01:47:55.504Z,13.70
2019-05-19T01:50:58.999Z,13.70
2019-05-19T01:54:02.560Z,13.70
2019-05-19T01:57:06.206Z,13.70
2019-05-19T02:00:10.401Z,13.70
2019-05-19T02:03:13.861Z,13.60
2019-05-19T02:06:17.490Z,13.60
2019-05-19T02:09:20.963Z,13.60
2019-05-19T02:12:24.513Z,13.60
2019-05-19T02:15:27.976Z,13.60
2019-05-19T02:18:31.462Z,13.60
2019-05-19T02:21:34.953Z,13.60
2019-05-19T02:24:38.444Z,13.50
2019-05-19T02:27:41.940Z,13.50
2019-05-19T02:30:45.400Z,13.50
2019-05-19T02:33:48.965Z,13.40
2019-05-19T02:36:52.526Z,13.40
2019-05-19T02:39:56.021Z,13.50
2019-05-19T02:43:01.019Z,13.40
2019-05-19T02:46:04.831Z,13.40
2019-05-19T02:49:10.627Z,13.30
2019-05-19T02:52:15.420Z,13.20
2019-05-19T02:55:20.324Z,13.10
2019-05-19T02:58:24.813Z,13.00
2019-05-19T03:01:28.670Z,13.00
2019-05-19T03:04:32.281Z,12.90
2019-05-19T03:07:35.838Z,12.90
2019-05-19T03:10:39.369Z,12.80
2019-05-19T03:13:42.854Z,12.80
2019-05-19T03:16:46.327Z,12.80
2019-05-19T03:19:49.816Z,12.70
2019-05-19T03:22:53.472Z,12.70
2019-05-19T03:25:56.957Z,12.70
2019-05-19T03:29:00.424Z,12.70
2019-05-19T03:32:13.034Z,12.70
2019-05-19T03:35:16.891Z,12.70
2019-05-19T03:38:20.454Z,12.70
2019-05-19T03:41:23.940Z,12.70
2019-05-19T03:44:27.480Z,12.70
2019-05-19T03:47:30.964Z,12.60
2019-05-19T03:50:34.475Z,12.60
2019-05-19T03:53:38.054Z,12.60
2019-05-19T03:56:41.619Z,12.60
2019-05-19T03:59:45.096Z,12.60
2019-05-19T04:02:48.661Z,12.70
2019-05-19T04:05:52.195Z,12.80
2019-05-19T04:08:55.701Z,12.90
2019-05-19T04:11:59.211Z,12.90
2019-05-19T04:15:02.838Z,12.90
2019-05-19T04:18:06.333Z,12.90
2019-05-19T04:21:09.894Z,12.90
2019-05-19T04:24:13.352Z,13.00
2019-05-19T04:27:16.930Z,13.10
2019-05-19T04:30:20.474Z,13.10
2019-05-19T04:33:24.037Z,13.20
2019-05-19T04:36:27.592Z,13.20
2019-05-19T04:39:31.084Z,13.30
2019-05-19T04:42:34.619Z,13.50
2019-05-19T04:45:38.105Z,13.70
2019-05-19T04:48:41.602Z,13.70
2019-05-19T04:51:45.073Z,13.80
2019-05-19T04:54:48.630Z,13.90
2019-05-19T04:57:52.090Z,13.90
2019-05-19T05:00:55.581Z,13.90
2019-05-19T05:03:59.092Z,14.00
2019-05-19T05:07:02.561Z,14.10
2019-05-19T05:10:06.880Z,14.30
2019-05-19T05:13:10.405Z,14.50
2019-05-19T05:16:13.900Z,14.90
2019-05-19T05:19:17.378Z,15.60
2019-05-19T05:22:22.429Z,16.90
2019-05-19T05:25:26.137Z,18.80
2019-05-19T05:28:29.593Z,20.90
2019-05-19T05:31:33.141Z,22.70
2019-05-19T05:34:36.701Z,24.40
2019-05-19T05:37:40.177Z,25.70
2019-05-19T05:40:43.661Z,27.10
2019-05-19T05:43:47.109Z,27.50
2019-05-19T05:46:50.589Z,27.50
2019-05-19T05:49:54.085Z,27.70
2019-05-19T05:52:57.648Z,28.20
2019-05-19T05:56:01.191Z,29.00
2019-05-19T05:59:04.704Z,29.40
2019-05-19T06:02:08.189Z,30.00
2019-05-19T06:05:11.789Z,30.10
2019-05-19T06:08:15.277Z,30.80
2019-05-19T06:11:18.797Z,31.30
2019-05-19T06:14:22.290Z,31.00
2019-05-19T06:17:25.818Z,31.10
2019-05-19T06:20:29.361Z,31.50
2019-05-19T06:23:32.852Z,31.60
2019-05-19T06:26:36.448Z,31.60
2019-05-19T06:29:39.933Z,32.30
2019-05-19T06:32:51.093Z,31.80
2019-05-19T06:35:54.548Z,31.80
2019-05-19T06:38:58.039Z,32.00
2019-05-19T06:42:01.599Z,32.50
2019-05-19T06:45:05.696Z,32.50
2019-05-19T06:48:09.230Z,32.30
2019-05-19T06:51:12.718Z,32.40
2019-05-19T06:54:16.271Z,32.80
2019-05-19T06:57:19.750Z,32.70
2019-05-19T07:00:23.540Z,32.70
2019-05-19T07:03:27.028Z,32.70
2019-05-19T07:06:30.536Z,32.70
2019-05-19T07:09:34.166Z,32.70
2019-05-19T07:12:37.710Z,32.60
2019-05-19T07:15:41.266Z,32.70
2019-05-19T07:18:44.738Z,32.90
2019-05-19T07:21:48.229Z,32.60
2019-05-19T07:24:51.680Z,32.80
2019-05-19T07:27:55.156Z,33.20
2019-05-19T07:30:58.608Z,33.70
2019-05-19T07:34:02.119Z,32.80
2019-05-19T07:37:05.623Z,32.90
2019-05-19T07:40:09.833Z,32.60
2019-05-19T07:43:13.285Z,32.10
2019-05-19T07:46:16.846Z,32.00
2019-05-19T07:49:20.301Z,31.70
2019-05-19T07:52:23.784Z,30.60
2019-05-19T07:55:27.333Z,30.10
2019-05-19T07:58:30.853Z,29.50
2019-05-19T08:01:34.445Z,28.90
2019-05-19T08:04:37.936Z,29.00
2019-05-19T08:07:41.455Z,28.30
2019-05-19T08:10:45.183Z,27.50
2019-05-19T08:13:50.172Z,27.20
2019-05-19T08:16:53.655Z,27.20
2019-05-19T08:19:57.214Z,27.10
2019-05-19T08:23:00.673Z,27.20
2019-05-19T08:26:04.317Z,27.40
2019-05-19T08:29:07.805Z,27.60
2019-05-19T08:32:11.265Z,28.00
2019-05-19T08:35:14.820Z,28.20
2019-05-19T08:38:18.549Z,28.00
2019-05-19T08:41:22.004Z,27.80
2019-05-19T08:44:25.489Z,27.90
2019-05-19T08:47:28.954Z,28.00
2019-05-19T08:50:32.529Z,28.20
2019-05-19T08:53:36.080Z,27.80
2019-05-19T08:56:39.538Z,27.30
2019-05-19T08:59:43.029Z,26.90
2019-05-19T09:02:46.528Z,27.40
2019-05-19T09:05:50.019Z,27.50
2019-05-19T09:08:53.569Z,27.70
2019-05-19T09:11:57.033Z,27.90
2019-05-19T09:15:00.528Z,28.00
2019-05-19T09:18:04.124Z,27.70
2019-05-19T09:21:07.608Z,27.60
2019-05-19T09:24:11.064Z,27.60
2019-05-19T09:27:14.561Z,27.30
2019-05-19T09:30:18.376Z,26.90
2019-05-19T09:33:21.858Z,26.50
2019-05-19T09:36:25.389Z,26.40
2019-05-19T09:39:28.957Z,25.90
2019-05-19T09:42:32.422Z,25.30
2019-05-19T09:45:35.918Z,25.00
2019-05-19T09:48:40.808Z,24.70
2019-05-19T09:51:44.312Z,24.60
2019-05-19T09:54:47.921Z,24.70
2019-05-19T09:57:51.479Z,24.60
2019-05-19T10:00:54.931Z,24.30
2019-05-19T10:03:58.414Z,24.10
2019-05-19T10:07:02.622Z,24.20
2019-05-19T10:10:09.956Z,24.30
2019-05-19T10:13:13.532Z,24.40
2019-05-19T10:16:16.984Z,24.30
2019-05-19T10:19:20.493Z,24.10
2019-05-19T10:22:24.153Z,23.90
2019-05-19T10:25:27.628Z,23.80
2019-05-19T10:28:31.117Z,23.70
2019-05-19T10:31:34.600Z,23.90
2019-05-19T10:34:38.144Z,24.10
2019-05-19T10:37:41.605Z,24.30
2019-05-19T10:40:45.800Z,24.50
2019-05-19T10:43:50.968Z,24.40
2019-05-19T10:46:54.460Z,24.50
2019-05-19T10:49:57.946Z,24.70
2019-05-19T10:53:01.477Z,24.20
2019-05-19T10:56:04.997Z,23.70
2019-05-19T10:59:08.489Z,23.60
2019-05-19T11:02:12.012Z,23.50
2019-05-19T11:05:15.875Z,23.60
2019-05-19T11:08:19.345Z,23.80
2019-05-19T11:11:22.845Z,24.10
2019-05-19T11:14:26.308Z,24.30
2019-05-19T11:17:29.796Z,24.20
2019-05-19T11:20:33.261Z,23.90
2019-05-19T11:23:36.760Z,23.70
2019-05-19T11:26:40.318Z,23.60
2019-05-19T11:29:43.776Z,23.60
2019-05-19T11:32:47.335Z,23.40
2019-05-19T11:35:50.892Z,23.30
2019-05-19T11:38:54.345Z,23.30
2019-05-19T11:41:57.898Z,23.40
2019-05-19T11:45:01.352Z,23.60
2019-05-19T11:48:04.996Z,23.50
2019-05-19T11:51:08.469Z,23.40
2019-05-19T11:54:12.025Z,23.50
2019-05-19T11:57:15.510Z,23.60
2019-05-19T12:00:19.639Z,23.70
2019-05-19T12:03:23.100Z,23.80
2019-05-19T12:06:38.565Z,24.00
2019-05-19T12:09:31.752Z,23.90
2019-05-19T12:12:42.996Z,23.70
2019-05-19T12:15:46.557Z,23.50
2019-05-19T12:18:50.036Z,23.30
2019-05-19T12:21:53.486Z,23.20
2019-05-19T12:24:56.983Z,23.30
2019-05-19T12:28:00.470Z,23.50
2019-05-19T12:31:03.920Z,23.60
2019-05-19T12:34:07.397Z,23.50
2019-05-19T12:37:10.916Z,23.40
2019-05-19T12:40:14.743Z,23.40
2019-05-19T12:43:18.272Z,23.40
2019-05-19T12:46:21.765Z,23.20
2019-05-19T12:49:25.320Z,23.10
2019-05-19T12:52:28.779Z,23.10
2019-05-19T12:55:32.426Z,23.00
2019-05-19T12:58:35.915Z,23.00
2019-05-19T13:01:39.552Z,22.90
2019-05-19T13:04:43.092Z,22.90
2019-05-19T13:07:46.552Z,23.10
2019-05-19T13:10:50.040Z,23.30
2019-05-19T13:13:53.651Z,23.40
2019-05-19T13:16:57.174Z,23.50
2019-05-19T13:20:00.672Z,23.50
2019-05-19T13:23:04.294Z,23.60
2019-05-19T13:26:07.786Z,23.80
2019-05-19T13:29:11.350Z,23.90
2019-05-19T13:32:14.909Z,23.80
2019-05-19T13:35:18.516Z,23.60
2019-05-19T13:38:22.216Z,23.50
2019-05-19T13:41:25.667Z,23.40
2019-05-19T13:44:29.149Z,23.50
2019-05-19T13:47:32.612Z,23.50
2019-05-19T13:50:36.169Z,23.50
2019-05-19T13:53:39.673Z,23.40
2019-05-19T13:56:43.183Z,23.30
2019-05-19T13:59:46.656Z,23.00
2019-05-19T14:02:50.118Z,22.90
2019-05-19T14:05:53.603Z,22.80
2019-05-19T14:08:57.083Z,22.70
2019-05-19T14:12:00.580Z,22.70
2019-05-19T14:15:06.177Z,22.70
2019-05-19T14:18:09.730Z,22.70
2019-05-19T14:21:13.180Z,23.00
2019-05-19T14:24:16.677Z,23.20
2019-05-19T14:27:29.573Z,23.40
2019-05-19T14:30:25.379Z,23.40
2019-05-19T14:33:28.833Z,23.40
2019-05-19T14:36:32.313Z,23.50
2019-05-19T14:39:35.804Z,23.60
2019-05-19T14:42:47.116Z,23.60
2019-05-19T14:45:50.595Z,23.70
2019-05-19T14:48:54.053Z,23.50
2019-05-19T14:51:57.536Z,23.40
2019-05-19T14:55:01.033Z,23.20
2019-05-19T14:58:04.595Z,23.00
2019-05-19T15:01:08.164Z,22.90
2019-05-19T15:04:11.680Z,22.80
2019-05-19T15:07:15.225Z,22.70
2019-05-19T15:10:22.129Z,22.70
2019-05-19T15:13:25.624Z,22.70
2019-05-19T15:16:29.140Z,22.60
2019-05-19T15:19:32.629Z,22.70
2019-05-19T15:22:36.152Z,22.60
2019-05-19T15:25:39.709Z,22.50
2019-05-19T15:28:43.168Z,22.40
2019-05-19T15:31:46.721Z,22.30
2019-05-19T15:34:50.192Z,22.10
2019-05-19T15:37:53.698Z,22.00
2019-05-19T15:40:57.153Z,22.00
2019-05-19T15:44:00.654Z,22.00
2019-05-19T15:47:04.281Z,21.90
2019-05-19T15:50:08.672Z,21.90
2019-05-19T15:53:12.132Z,21.80
2019-05-19T15:56:15.682Z,21.70
2019-05-19T15:59:19.178Z,21.70
2019-05-19T16:02:22.644Z,21.70
2019-05-19T16:05:26.145Z,21.60
2019-05-19T16:08:29.624Z,21.60
2019-05-19T16:11:33.093Z,21.50
2019-05-19T16:14:36.596Z,21.60
2019-05-19T16:17:40.120Z,21.60
2019-05-19T16:20:43.620Z,21.60
2019-05-19T16:23:47.125Z,21.60
2019-05-19T16:26:50.592Z,21.70
2019-05-19T16:29:54.076Z,21.80
2019-05-19T16:32:57.532Z,21.90
2019-05-19T16:36:01.030Z,22.00
2019-05-19T16:39:06.424Z,22.00
2019-05-19T16:42:09.912Z,22.00
2019-05-19T16:45:13.817Z,21.90
2019-05-19T16:48:17.381Z,21.80
2019-05-19T16:51:20.892Z,21.70
2019-05-19T16:54:26.109Z,21.70
2019-05-19T16:57:29.588Z,21.70
2019-05-19T17:00:33.853Z,21.70
2019-05-19T17:03:37.337Z,21.70
2019-05-19T17:06:40.792Z,21.60
2019-05-19T17:09:44.310Z,21.60
2019-05-19T17:12:47.772Z,21.60
2019-05-19T17:15:51.257Z,21.60
2019-05-19T17:18:54.714Z,21.60
2019-05-19T17:21:58.194Z,21.50
2019-05-19T17:25:02.126Z,21.50
2019-05-19T17:28:05.609Z,21.50
2019-05-19T17:31:09.093Z,21.40
2019-05-19T17:34:12.627Z,21.30
2019-05-19T17:37:16.110Z,21.20
2019-05-19T17:40:19.816Z,21.20
2019-05-19T17:43:23.297Z,21.00
2019-05-19T17:46:26.784Z,20.90
2019-05-19T17:49:33.190Z,20.90
2019-05-19T17:52:36.818Z,20.80
2019-05-19T17:55:41.329Z,20.70
2019-05-19T17:58:46.152Z,20.60
2019-05-19T18:01:49.632Z,20.40
2019-05-19T18:04:53.089Z,20.30
2019-05-19T18:07:56.596Z,20.20
2019-05-19T18:11:00.058Z,20.10
2019-05-19T18:14:03.724Z,20.10
2019-05-19T18:17:07.265Z,20.10
2019-05-19T18:20:22.921Z,20.00
2019-05-19T18:23:16.172Z,20.00
2019-05-19T18:26:19.670Z,20.00
2019-05-19T18:29:30.915Z,20.00
2019-05-19T18:32:28.330Z,20.00
2019-05-19T18:35:56.756Z,19.90
2019-05-19T18:39:00.245Z,19.90
2019-05-19T18:42:03.766Z,19.90
2019-05-19T18:45:08.092Z,19.80
2019-05-19T18:48:11.549Z,19.70
2019-05-19T18:51:15.040Z,19.60
2019-05-19T18:54:18.532Z,19.50
2019-05-19T18:57:22.037Z,19.40
2019-05-19T19:00:37.138Z,19.20
2019-05-19T19:03:40.701Z,19.10
2019-05-19T19:06:44.236Z,18.90
2019-05-19T19:09:47.724Z,18.80
2019-05-19T19:12:51.218Z,18.70
2019-05-19T19:15:54.686Z,18.50
2019-05-19T19:18:58.235Z,18.50
2019-05-19T19:22:01.725Z,18.40
2019-05-19T19:25:06.902Z,18.40
2019-05-19T19:28:10.580Z,18.30
2019-05-19T19:31:14.133Z,18.20
2019-05-19T19:34:17.629Z,18.20
2019-05-19T19:37:21.170Z,17.90
2019-05-19T19:40:31.565Z,17.80
2019-05-19T19:43:35.140Z,17.70
2019-05-19T19:46:38.596Z,17.70
2019-05-19T19:49:42.097Z,17.70
2019-05-19T19:52:45.554Z,17.70
2019-05-19T19:55:49.044Z,17.70
2019-05-19T19:58:52.584Z,17.70
2019-05-19T20:01:56.181Z,17.60
2019-05-19T20:04:59.732Z,17.70
2019-05-19T20:08:03.261Z,17.70
2019-05-19T20:11:06.856Z,17.70
2019-05-19T20:14:10.374Z,17.50
2019-05-19T20:17:13.932Z,17.50
2019-05-19T20:20:17.421Z,17.50
2019-05-19T20:23:20.905Z,17.50
2019-05-19T20:26:24.398Z,17.40
2019-05-19T20:29:27.852Z,17.30
2019-05-19T20:32:31.337Z,17.10
2019-05-19T20:35:34.888Z,17.00
2019-05-19T20:38:38.376Z,17.10
2019-05-19T20:41:41.880Z,17.00
2019-05-19T20:44:45.364Z,17.00
2019-05-19T20:47:48.831Z,17.00
2019-05-19T20:50:52.384Z,17.00
2019-05-19T20:53:55.845Z,17.10
2019-05-19T20:56:59.357Z,17.10
2019-05-19T21:00:03.357Z,17.10
2019-05-19T21:03:06.817Z,17.10
2019-05-19T21:06:10.307Z,17.20
2019-05-19T21:09:13.888Z,17.20
2019-05-19T21:12:17.434Z,17.30
2019-05-19T21:15:20.892Z,17.30
2019-05-19T21:18:24.400Z,17.30
2019-05-19T21:21:27.889Z,17.40
2019-05-19T21:24:31.348Z,17.30
2019-05-19T21:27:34.841Z,17.30
2019-05-19T21:30:38.339Z,17.30
2019-05-19T21:33:41.800Z,17.30
2019-05-19T21:36:45.296Z,17.30
2019-05-19T21:39:48.753Z,17.20
2019-05-19T21:42:52.240Z,17.20
2019-05-19T21:45:55.708Z,17.10
2019-05-19T21:48:59.188Z,17.10
2019-05-19T21:52:02.691Z,17.10
2019-05-19T21:55:07.620Z,17.10
2019-05-19T21:58:11.105Z,17.00
2019-05-19T22:01:23.165Z,17.00
2019-05-19T22:04:20.977Z,17.00
2019-05-19T22:07:26.177Z,16.90
2019-05-19T22:10:29.660Z,16.80
2019-05-19T22:13:33.125Z,16.70
2019-05-19T22:16:36.613Z,16.50
2019-05-19T22:19:40.117Z,16.40
2019-05-19T22:22:43.573Z,16.30
2019-05-19T22:25:47.128Z,16.20
2019-05-19T22:28:50.600Z,16.10
2019-05-19T22:31:54.092Z,16.10
2019-05-19T22:34:57.633Z,16.00
2019-05-19T22:38:01.128Z,15.90
2019-05-19T22:41:04.681Z,15.90
2019-05-19T22:44:08.132Z,15.80
2019-05-19T22:47:11.624Z,15.90
2019-05-19T22:50:15.421Z,15.80
2019-05-19T22:53:18.913Z,15.70
2019-05-19T22:56:22.379Z,15.70
2019-05-19T22:59:25.868Z,15.70
2019-05-19T23:02:29.348Z,15.60
2019-05-19T23:05:32.841Z,15.70
2019-05-19T23:08:36.426Z,15.70
2019-05-19T23:11:40.035Z,15.70
2019-05-19T23:14:43.585Z,15.70
2019-05-19T23:17:47.052Z,15.80
2019-05-19T23:20:50.540Z,15.90
2019-05-19T23:23:54.088Z,16.00
2019-05-19T23:26:57.657Z,16.10
2019-05-19T23:30:01.140Z,16.10
2019-05-19T23:33:04.600Z,16.10
2019-05-19T23:36:08.083Z,16.10
2019-05-19T23:39:11.540Z,16.10
2019-05-19T23:42:15.059Z,16.10
2019-05-19T23:45:18.709Z,16.00
2019-05-19T23:48:22.273Z,16.00
2019-05-19T23:51:25.753Z,15.80
2019-05-19T23:54:29.212Z,15.70
2019-05-19T23:57:32.696Z,15.50
